sensor_id;sensor_type;location;lat;lon;timestamp;temperature;humidity
4964;DHT22;2497;47.410;9.740;2022-10-26T00:01:58;12.80;99.90
4964;DHT22;2497;47.410;9.740;2022-10-26T00:04:25;12.80;99.90
4964;DHT22;2497;47.410;9.740;2022-10-26T00:06:53;12.90;99.90
4964;DHT22;2497;47.410;9.740;2022-10-26T00:09:21;12.90;99.90
4964;DHT22;2497;47.410;9.740;2022-10-26T00:11:48;12.80;99.90
4964;DHT22;2497;47.410;9.740;2022-10-26T00:14:15;12.80;99.90
4964;DHT22;2497;47.410;9.740;2022-10-26T00:16:45;12.80;99.90
4964;DHT22;2497;47.410;9.740;2022-10-26T00:19:12;12.80;99.90
4964;DHT22;2497;47.410;9.740;2022-10-26T00:21:40;12.80;99.90
4964;DHT22;2497;47.410;9.740;2022-10-26T00:24:09;12.80;99.90
4964;DHT22;2497;47.410;9.740;2022-10-26T00:26:36;12.80;99.90
4964;DHT22;2497;47.410;9.740;2022-10-26T00:29:06;12.80;99.90
4964;DHT22;2497;47.410;9.740;2022-10-26T00:31:33;12.90;99.90
4964;DHT22;2497;47.410;9.740;2022-10-26T00:34:02;13.00;99.90
4964;DHT22;2497;47.410;9.740;2022-10-26T00:36:30;13.20;99.90
4964;DHT22;2497;47.410;9.740;2022-10-26T00:39:00;13.30;99.90
4964;DHT22;2497;47.410;9.740;2022-10-26T00:41:30;13.50;99.90
4964;DHT22;2497;47.410;9.740;2022-10-26T00:43:58;13.50;99.90
4964;DHT22;2497;47.410;9.740;2022-10-26T00:46:30;13.40;99.90
4964;DHT22;2497;47.410;9.740;2022-10-26T00:49:00;13.40;99.90
4964;DHT22;2497;47.410;9.740;2022-10-26T00:51:32;13.30;99.90
4964;DHT22;2497;47.410;9.740;2022-10-26T00:54:04;13.30;99.90
4964;DHT22;2497;47.410;9.740;2022-10-26T00:56:33;13.20;99.90
4964;DHT22;2497;47.410;9.740;2022-10-26T00:59:04;13.10;99.90
4964;DHT22;2497;47.410;9.740;2022-10-26T01:01:34;13.10;99.90
4964;DHT22;2497;47.410;9.740;2022-10-26T01:04:03;13.20;99.90
4964;DHT22;2497;47.410;9.740;2022-10-26T01:06:33;13.10;99.90
4964;DHT22;2497;47.410;9.740;2022-10-26T01:09:01;13.10;99.90
4964;DHT22;2497;47.410;9.740;2022-10-26T01:11:29;13.10;99.90
4964;DHT22;2497;47.410;9.740;2022-10-26T01:13:59;13.00;99.90
4964;DHT22;2497;47.410;9.740;2022-10-26T01:16:40;13.00;99.90
4964;DHT22;2497;47.410;9.740;2022-10-26T01:19:37;12.90;99.90
4964;DHT22;2497;47.410;9.740;2022-10-26T01:22:12;12.90;99.90
4964;DHT22;2497;47.410;9.740;2022-10-26T01:24:51;12.90;99.90
4964;DHT22;2497;47.410;9.740;2022-10-26T01:27:27;12.90;99.90
4964;DHT22;2497;47.410;9.740;2022-10-26T01:35:58;12.80;99.90
4964;DHT22;2497;47.410;9.740;2022-10-26T01:38:31;12.70;99.90
4964;DHT22;2497;47.410;9.740;2022-10-26T01:41:07;12.60;99.90
4964;DHT22;2497;47.410;9.740;2022-10-26T01:43:41;12.60;99.90
4964;DHT22;2497;47.410;9.740;2022-10-26T01:46:10;12.60;99.90
4964;DHT22;2497;47.410;9.740;2022-10-26T01:48:40;12.60;99.90
4964;DHT22;2497;47.410;9.740;2022-10-26T01:51:10;12.50;99.90
4964;DHT22;2497;47.410;9.740;2022-10-26T01:53:43;12.50;99.90
4964;DHT22;2497;47.410;9.740;2022-10-26T01:56:13;12.50;99.90
4964;DHT22;2497;47.410;9.740;2022-10-26T01:58:55;12.40;99.90
4964;DHT22;2497;47.410;9.740;2022-10-26T02:04:50;12.30;99.90
4964;DHT22;2497;47.410;9.740;2022-10-26T02:07:26;12.20;99.90
4964;DHT22;2497;47.410;9.740;2022-10-26T02:09:59;12.20;99.90
4964;DHT22;2497;47.410;9.740;2022-10-26T02:12:36;12.20;99.90
4964;DHT22;2497;47.410;9.740;2022-10-26T02:15:07;12.10;99.90
4964;DHT22;2497;47.410;9.740;2022-10-26T02:17:45;12.10;99.90
4964;DHT22;2497;47.410;9.740;2022-10-26T02:20:18;12.00;99.90
4964;DHT22;2497;47.410;9.740;2022-10-26T02:22:49;12.00;99.90
4964;DHT22;2497;47.410;9.740;2022-10-26T02:25:21;12.00;99.90
4964;DHT22;2497;47.410;9.740;2022-10-26T02:27:52;12.00;99.90
4964;DHT22;2497;47.410;9.740;2022-10-26T02:30:21;12.00;99.90
4964;DHT22;2497;47.410;9.740;2022-10-26T02:32:51;12.10;99.90
4964;DHT22;2497;47.410;9.740;2022-10-26T02:35:24;12.20;99.90
4964;DHT22;2497;47.410;9.740;2022-10-26T02:37:55;12.30;99.90
4964;DHT22;2497;47.410;9.740;2022-10-26T02:40:25;12.20;99.90
4964;DHT22;2497;47.410;9.740;2022-10-26T02:42:55;12.20;99.90
4964;DHT22;2497;47.410;9.740;2022-10-26T02:45:26;12.30;99.90
4964;DHT22;2497;47.410;9.740;2022-10-26T02:47:55;12.40;99.90
4964;DHT22;2497;47.410;9.740;2022-10-26T02:50:28;12.50;99.90
4964;DHT22;2497;47.410;9.740;2022-10-26T02:53:05;12.50;99.90
4964;DHT22;2497;47.410;9.740;2022-10-26T02:55:41;12.70;99.90
4964;DHT22;2497;47.410;9.740;2022-10-26T02:58:13;12.60;99.90
4964;DHT22;2497;47.410;9.740;2022-10-26T03:00:41;12.70;99.90
4964;DHT22;2497;47.410;9.740;2022-10-26T03:03:10;12.90;99.90
4964;DHT22;2497;47.410;9.740;2022-10-26T03:05:41;12.90;99.90
4964;DHT22;2497;47.410;9.740;2022-10-26T03:08:09;12.80;99.90
4964;DHT22;2497;47.410;9.740;2022-10-26T03:10:39;12.80;99.90
4964;DHT22;2497;47.410;9.740;2022-10-26T03:13:07;12.80;99.90
4964;DHT22;2497;47.410;9.740;2022-10-26T03:15:35;12.80;99.90
4964;DHT22;2497;47.410;9.740;2022-10-26T03:18:04;12.80;99.90
4964;DHT22;2497;47.410;9.740;2022-10-26T03:20:31;12.80;99.90
4964;DHT22;2497;47.410;9.740;2022-10-26T03:23:01;12.80;99.90
4964;DHT22;2497;47.410;9.740;2022-10-26T03:25:28;12.90;99.90
4964;DHT22;2497;47.410;9.740;2022-10-26T03:27:57;13.00;99.90
4964;DHT22;2497;47.410;9.740;2022-10-26T03:30:24;13.00;99.90
4964;DHT22;2497;47.410;9.740;2022-10-26T03:32:52;13.00;99.90
4964;DHT22;2497;47.410;9.740;2022-10-26T03:35:20;13.10;99.90
4964;DHT22;2497;47.410;9.740;2022-10-26T03:37:48;13.00;99.90
4964;DHT22;2497;47.410;9.740;2022-10-26T03:40:17;13.10;99.90
4964;DHT22;2497;47.410;9.740;2022-10-26T03:42:45;13.20;99.90
4964;DHT22;2497;47.410;9.740;2022-10-26T03:45:12;13.20;99.90
4964;DHT22;2497;47.410;9.740;2022-10-26T03:47:42;13.20;99.90
4964;DHT22;2497;47.410;9.740;2022-10-26T03:50:11;13.30;99.90
4964;DHT22;2497;47.410;9.740;2022-10-26T03:52:38;13.30;99.90
4964;DHT22;2497;47.410;9.740;2022-10-26T03:55:07;13.30;99.90
4964;DHT22;2497;47.410;9.740;2022-10-26T03:57:39;13.20;99.90
4964;DHT22;2497;47.410;9.740;2022-10-26T04:00:08;13.20;99.90
4964;DHT22;2497;47.410;9.740;2022-10-26T04:02:36;13.30;99.90
4964;DHT22;2497;47.410;9.740;2022-10-26T04:05:04;13.30;99.90
4964;DHT22;2497;47.410;9.740;2022-10-26T04:07:31;13.30;99.90
4964;DHT22;2497;47.410;9.740;2022-10-26T04:09:59;13.30;99.90
4964;DHT22;2497;47.410;9.740;2022-10-26T04:12:26;13.30;99.90
4964;DHT22;2497;47.410;9.740;2022-10-26T04:14:55;13.30;99.90
4964;DHT22;2497;47.410;9.740;2022-10-26T04:17:23;13.30;99.90
4964;DHT22;2497;47.410;9.740;2022-10-26T04:19:51;13.30;99.90
4964;DHT22;2497;47.410;9.740;2022-10-26T04:22:21;13.20;99.90
4964;DHT22;2497;47.410;9.740;2022-10-26T04:24:48;13.20;99.90
4964;DHT22;2497;47.410;9.740;2022-10-26T04:27:15;13.10;99.90
4964;DHT22;2497;47.410;9.740;2022-10-26T04:29:43;13.10;99.90
4964;DHT22;2497;47.410;9.740;2022-10-26T04:32:12;13.00;99.90
4964;DHT22;2497;47.410;9.740;2022-10-26T04:34:39;12.90;99.90
4964;DHT22;2497;47.410;9.740;2022-10-26T04:37:06;12.90;99.90
4964;DHT22;2497;47.410;9.740;2022-10-26T04:39:34;12.90;99.90
4964;DHT22;2497;47.410;9.740;2022-10-26T04:42:02;13.00;99.90
4964;DHT22;2497;47.410;9.740;2022-10-26T04:44:29;13.00;99.90
4964;DHT22;2497;47.410;9.740;2022-10-26T04:46:57;13.00;99.90
4964;DHT22;2497;47.410;9.740;2022-10-26T04:49:26;13.10;99.90
4964;DHT22;2497;47.410;9.740;2022-10-26T04:51:54;13.10;99.90
4964;DHT22;2497;47.410;9.740;2022-10-26T04:54:21;13.10;99.90
4964;DHT22;2497;47.410;9.740;2022-10-26T04:56:50;13.10;99.90
4964;DHT22;2497;47.410;9.740;2022-10-26T04:59:17;13.20;99.90
4964;DHT22;2497;47.410;9.740;2022-10-26T05:01:45;13.30;99.90
4964;DHT22;2497;47.410;9.740;2022-10-26T05:04:13;13.40;99.90
4964;DHT22;2497;47.410;9.740;2022-10-26T05:06:42;13.30;99.90
4964;DHT22;2497;47.410;9.740;2022-10-26T05:09:09;13.40;99.90
4964;DHT22;2497;47.410;9.740;2022-10-26T05:11:37;13.50;99.90
4964;DHT22;2497;47.410;9.740;2022-10-26T05:14:04;13.50;99.90
4964;DHT22;2497;47.410;9.740;2022-10-26T05:16:32;13.50;99.90
4964;DHT22;2497;47.410;9.740;2022-10-26T05:18:59;13.60;99.90
4964;DHT22;2497;47.410;9.740;2022-10-26T05:21:27;13.70;99.90
4964;DHT22;2497;47.410;9.740;2022-10-26T05:23:56;13.40;99.90
4964;DHT22;2497;47.410;9.740;2022-10-26T05:26:23;13.20;99.90
4964;DHT22;2497;47.410;9.740;2022-10-26T05:28:51;13.00;99.90
4964;DHT22;2497;47.410;9.740;2022-10-26T05:31:19;13.00;99.90
4964;DHT22;2497;47.410;9.740;2022-10-26T05:33:48;12.90;99.90
4964;DHT22;2497;47.410;9.740;2022-10-26T05:36:16;12.80;99.90
4964;DHT22;2497;47.410;9.740;2022-10-26T05:38:44;12.80;99.90
4964;DHT22;2497;47.410;9.740;2022-10-26T05:41:13;12.80;99.90
4964;DHT22;2497;47.410;9.740;2022-10-26T05:43:40;12.80;99.90
4964;DHT22;2497;47.410;9.740;2022-10-26T05:46:08;12.80;99.90
4964;DHT22;2497;47.410;9.740;2022-10-26T05:48:36;12.80;99.90
4964;DHT22;2497;47.410;9.740;2022-10-26T05:51:04;12.80;99.90
4964;DHT22;2497;47.410;9.740;2022-10-26T05:53:31;12.80;99.90
4964;DHT22;2497;47.410;9.740;2022-10-26T05:56:00;12.80;99.90
4964;DHT22;2497;47.410;9.740;2022-10-26T05:58:29;12.80;99.90
4964;DHT22;2497;47.410;9.740;2022-10-26T06:01:07;12.90;99.90
4964;DHT22;2497;47.410;9.740;2022-10-26T06:03:49;13.00;99.90
4964;DHT22;2497;47.410;9.740;2022-10-26T06:06:21;12.90;99.90
4964;DHT22;2497;47.410;9.740;2022-10-26T06:08:49;12.90;99.90
4964;DHT22;2497;47.410;9.740;2022-10-26T06:11:17;12.80;99.90
4964;DHT22;2497;47.410;9.740;2022-10-26T06:13:48;12.80;99.90
4964;DHT22;2497;47.410;9.740;2022-10-26T06:16:26;12.80;99.90
4964;DHT22;2497;47.410;9.740;2022-10-26T06:19:03;12.80;99.90
4964;DHT22;2497;47.410;9.740;2022-10-26T06:21:54;12.80;99.90
4964;DHT22;2497;47.410;9.740;2022-10-26T06:24:29;12.90;99.90
4964;DHT22;2497;47.410;9.740;2022-10-26T06:27:05;12.90;99.90
4964;DHT22;2497;47.410;9.740;2022-10-26T06:29:46;13.00;99.90
4964;DHT22;2497;47.410;9.740;2022-10-26T06:32:15;13.10;99.90
4964;DHT22;2497;47.410;9.740;2022-10-26T06:34:46;13.20;99.90
4964;DHT22;2497;47.410;9.740;2022-10-26T06:37:14;13.40;99.90
4964;DHT22;2497;47.410;9.740;2022-10-26T06:39:45;13.60;99.90
4964;DHT22;2497;47.410;9.740;2022-10-26T06:42:13;13.80;99.90
4964;DHT22;2497;47.410;9.740;2022-10-26T06:44:43;13.60;99.90
4964;DHT22;2497;47.410;9.740;2022-10-26T06:47:17;13.40;99.90
4964;DHT22;2497;47.410;9.740;2022-10-26T06:49:55;13.30;99.90
4964;DHT22;2497;47.410;9.740;2022-10-26T06:52:28;13.20;99.90
4964;DHT22;2497;47.410;9.740;2022-10-26T06:54:58;13.20;99.90
4964;DHT22;2497;47.410;9.740;2022-10-26T06:57:31;13.10;99.90
4964;DHT22;2497;47.410;9.740;2022-10-26T07:00:03;13.20;99.90
4964;DHT22;2497;47.410;9.740;2022-10-26T07:02:30;13.10;99.90
4964;DHT22;2497;47.410;9.740;2022-10-26T07:04:58;13.10;99.90
4964;DHT22;2497;47.410;9.740;2022-10-26T07:07:28;13.10;99.90
4964;DHT22;2497;47.410;9.740;2022-10-26T07:09:57;13.00;99.90
4964;DHT22;2497;47.410;9.740;2022-10-26T07:12:24;13.00;99.90
4964;DHT22;2497;47.410;9.740;2022-10-26T07:14:52;13.10;99.90
4964;DHT22;2497;47.410;9.740;2022-10-26T07:17:22;13.00;99.90
4964;DHT22;2497;47.410;9.740;2022-10-26T07:19:51;13.10;99.90
4964;DHT22;2497;47.410;9.740;2022-10-26T07:22:19;13.20;99.90
4964;DHT22;2497;47.410;9.740;2022-10-26T07:24:47;13.20;99.90
4964;DHT22;2497;47.410;9.740;2022-10-26T07:27:16;13.10;99.90
4964;DHT22;2497;47.410;9.740;2022-10-26T07:29:44;13.10;99.90
4964;DHT22;2497;47.410;9.740;2022-10-26T07:32:12;13.10;99.90
4964;DHT22;2497;47.410;9.740;2022-10-26T07:34:41;13.10;99.90
4964;DHT22;2497;47.410;9.740;2022-10-26T07:37:08;13.20;99.90
4964;DHT22;2497;47.410;9.740;2022-10-26T07:39:36;13.30;99.90
4964;DHT22;2497;47.410;9.740;2022-10-26T07:42:04;13.30;99.90
4964;DHT22;2497;47.410;9.740;2022-10-26T07:44:31;13.30;99.90
4964;DHT22;2497;47.410;9.740;2022-10-26T07:46:59;13.30;99.90
4964;DHT22;2497;47.410;9.740;2022-10-26T07:49:27;13.30;99.90
4964;DHT22;2497;47.410;9.740;2022-10-26T07:51:56;13.40;99.90
4964;DHT22;2497;47.410;9.740;2022-10-26T07:54:23;13.30;99.90
4964;DHT22;2497;47.410;9.740;2022-10-26T07:56:51;13.30;99.90
4964;DHT22;2497;47.410;9.740;2022-10-26T07:59:18;13.40;99.90
4964;DHT22;2497;47.410;9.740;2022-10-26T08:01:46;13.40;99.90
4964;DHT22;2497;47.410;9.740;2022-10-26T08:04:14;13.40;99.90
4964;DHT22;2497;47.410;9.740;2022-10-26T08:06:41;13.50;99.90
4964;DHT22;2497;47.410;9.740;2022-10-26T08:09:10;13.50;99.90
4964;DHT22;2497;47.410;9.740;2022-10-26T08:11:37;13.60;99.90
4964;DHT22;2497;47.410;9.740;2022-10-26T08:14:05;13.60;99.90
4964;DHT22;2497;47.410;9.740;2022-10-26T08:16:33;13.70;99.90
4964;DHT22;2497;47.410;9.740;2022-10-26T08:19:01;13.60;99.90
4964;DHT22;2497;47.410;9.740;2022-10-26T08:21:28;13.60;99.90
4964;DHT22;2497;47.410;9.740;2022-10-26T08:23:55;13.60;99.90
4964;DHT22;2497;47.410;9.740;2022-10-26T08:26:24;13.70;99.90
4964;DHT22;2497;47.410;9.740;2022-10-26T08:28:52;13.60;99.90
4964;DHT22;2497;47.410;9.740;2022-10-26T08:31:19;13.70;99.90
4964;DHT22;2497;47.410;9.740;2022-10-26T08:33:47;13.70;99.90
4964;DHT22;2497;47.410;9.740;2022-10-26T08:36:17;13.80;99.90
4964;DHT22;2497;47.410;9.740;2022-10-26T08:38:46;13.80;99.90
4964;DHT22;2497;47.410;9.740;2022-10-26T08:41:14;13.90;99.90
4964;DHT22;2497;47.410;9.740;2022-10-26T08:43:47;13.90;99.90
4964;DHT22;2497;47.410;9.740;2022-10-26T08:46:20;14.00;99.90
4964;DHT22;2497;47.410;9.740;2022-10-26T08:48:51;14.10;99.90
4964;DHT22;2497;47.410;9.740;2022-10-26T08:51:24;14.20;99.90
4964;DHT22;2497;47.410;9.740;2022-10-26T08:53:57;14.30;99.90
4964;DHT22;2497;47.410;9.740;2022-10-26T08:56:26;14.30;99.90
4964;DHT22;2497;47.410;9.740;2022-10-26T08:59:00;14.40;99.90
4964;DHT22;2497;47.410;9.740;2022-10-26T09:01:30;14.50;99.90
4964;DHT22;2497;47.410;9.740;2022-10-26T09:04:00;14.50;99.90
4964;DHT22;2497;47.410;9.740;2022-10-26T09:06:33;14.50;99.90
4964;DHT22;2497;47.410;9.740;2022-10-26T09:09:07;14.50;99.90
4964;DHT22;2497;47.410;9.740;2022-10-26T09:11:48;14.50;99.90
4964;DHT22;2497;47.410;9.740;2022-10-26T09:14:25;14.60;99.90
4964;DHT22;2497;47.410;9.740;2022-10-26T09:17:10;14.60;99.90
4964;DHT22;2497;47.410;9.740;2022-10-26T09:20:01;14.60;99.90
4964;DHT22;2497;47.410;9.740;2022-10-26T09:22:36;14.60;99.90
4964;DHT22;2497;47.410;9.740;2022-10-26T09:25:17;14.60;99.90
4964;DHT22;2497;47.410;9.740;2022-10-26T09:27:47;14.60;99.90
4964;DHT22;2497;47.410;9.740;2022-10-26T09:30:20;14.60;99.90
4964;DHT22;2497;47.410;9.740;2022-10-26T09:32:49;14.60;99.90
4964;DHT22;2497;47.410;9.740;2022-10-26T09:35:21;14.70;99.90
4964;DHT22;2497;47.410;9.740;2022-10-26T09:37:51;14.80;99.90
4964;DHT22;2497;47.410;9.740;2022-10-26T09:40:24;14.90;99.90
4964;DHT22;2497;47.410;9.740;2022-10-26T09:44:04;15.00;99.90
4964;DHT22;2497;47.410;9.740;2022-10-26T09:50:17;15.20;99.90
4964;DHT22;2497;47.410;9.740;2022-10-26T09:52:47;15.20;99.90
4964;DHT22;2497;47.410;9.740;2022-10-26T09:55:14;15.30;99.90
4964;DHT22;2497;47.410;9.740;2022-10-26T09:57:44;15.30;99.90
4964;DHT22;2497;47.410;9.740;2022-10-26T10:04:08;15.40;99.90
4964;DHT22;2497;47.410;9.740;2022-10-26T10:06:42;15.60;99.90
4964;DHT22;2497;47.410;9.740;2022-10-26T10:09:15;15.60;99.90
4964;DHT22;2497;47.410;9.740;2022-10-26T10:11:46;15.80;99.90
4964;DHT22;2497;47.410;9.740;2022-10-26T10:14:21;15.90;99.90
4964;DHT22;2497;47.410;9.740;2022-10-26T10:16:52;16.00;99.90
4964;DHT22;2497;47.410;9.740;2022-10-26T10:19:22;16.10;99.90
4964;DHT22;2497;47.410;9.740;2022-10-26T10:21:54;16.20;99.90
4964;DHT22;2497;47.410;9.740;2022-10-26T10:24:27;16.40;99.90
4964;DHT22;2497;47.410;9.740;2022-10-26T10:26:58;16.40;99.90
4964;DHT22;2497;47.410;9.740;2022-10-26T10:29:26;16.40;99.90
4964;DHT22;2497;47.410;9.740;2022-10-26T10:31:58;16.50;99.90
4964;DHT22;2497;47.410;9.740;2022-10-26T10:34:28;16.70;99.90
4964;DHT22;2497;47.410;9.740;2022-10-26T10:36:59;16.80;99.90
4964;DHT22;2497;47.410;9.740;2022-10-26T10:39:37;16.90;99.90
4964;DHT22;2497;47.410;9.740;2022-10-26T10:42:13;16.90;99.90
4964;DHT22;2497;47.410;9.740;2022-10-26T10:44:43;17.00;99.90
4964;DHT22;2497;47.410;9.740;2022-10-26T10:47:19;17.00;99.90
4964;DHT22;2497;47.410;9.740;2022-10-26T10:49:55;17.10;99.90
4964;DHT22;2497;47.410;9.740;2022-10-26T10:52:29;17.30;99.90
4964;DHT22;2497;47.410;9.740;2022-10-26T10:55:18;17.50;99.90
4964;DHT22;2497;47.410;9.740;2022-10-26T10:57:57;17.80;99.90
4964;DHT22;2497;47.410;9.740;2022-10-26T11:00:27;17.70;99.90
4964;DHT22;2497;47.410;9.740;2022-10-26T11:03:14;17.70;99.90
4964;DHT22;2497;47.410;9.740;2022-10-26T11:05:59;17.90;99.90
4964;DHT22;2497;47.410;9.740;2022-10-26T11:08:35;17.70;99.90
4964;DHT22;2497;47.410;9.740;2022-10-26T11:11:10;17.60;99.90
4964;DHT22;2497;47.410;9.740;2022-10-26T11:13:43;17.40;99.90
4964;DHT22;2497;47.410;9.740;2022-10-26T11:16:19;17.40;99.90
4964;DHT22;2497;47.410;9.740;2022-10-26T11:18:50;17.50;99.90
4964;DHT22;2497;47.410;9.740;2022-10-26T11:21:24;17.30;99.90
4964;DHT22;2497;47.410;9.740;2022-10-26T11:24:10;17.30;99.90
4964;DHT22;2497;47.410;9.740;2022-10-26T11:26:44;17.20;99.90
4964;DHT22;2497;47.410;9.740;2022-10-26T11:29:25;17.20;99.90
4964;DHT22;2497;47.410;9.740;2022-10-26T11:31:59;17.20;99.90
4964;DHT22;2497;47.410;9.740;2022-10-26T11:34:35;17.10;99.90
4964;DHT22;2497;47.410;9.740;2022-10-26T11:37:10;17.00;99.90
4964;DHT22;2497;47.410;9.740;2022-10-26T11:40:00;17.00;99.90
4964;DHT22;2497;47.410;9.740;2022-10-26T11:42:32;17.00;99.90
4964;DHT22;2497;47.410;9.740;2022-10-26T11:45:08;17.10;99.90
4964;DHT22;2497;47.410;9.740;2022-10-26T11:47:43;17.10;99.90
4964;DHT22;2497;47.410;9.740;2022-10-26T11:50:16;17.20;99.90
4964;DHT22;2497;47.410;9.740;2022-10-26T11:52:46;17.30;99.90
4964;DHT22;2497;47.410;9.740;2022-10-26T11:55:18;17.40;99.90
4964;DHT22;2497;47.410;9.740;2022-10-26T11:57:48;17.50;99.90
4964;DHT22;2497;47.410;9.740;2022-10-26T12:00:19;17.60;99.90
4964;DHT22;2497;47.410;9.740;2022-10-26T12:02:52;17.70;99.90
4964;DHT22;2497;47.410;9.740;2022-10-26T12:05:32;18.00;99.90
4964;DHT22;2497;47.410;9.740;2022-10-26T12:08:03;18.20;99.90
4964;DHT22;2497;47.410;9.740;2022-10-26T12:10:35;18.30;99.90
4964;DHT22;2497;47.410;9.740;2022-10-26T12:13:13;18.40;99.90
4964;DHT22;2497;47.410;9.740;2022-10-26T12:15:47;18.40;99.90
4964;DHT22;2497;47.410;9.740;2022-10-26T12:18:24;18.30;99.90
4964;DHT22;2497;47.410;9.740;2022-10-26T12:21:02;18.40;99.90
4964;DHT22;2497;47.410;9.740;2022-10-26T12:23:36;18.50;99.90
4964;DHT22;2497;47.410;9.740;2022-10-26T12:29:30;19.70;99.90
4964;DHT22;2497;47.410;9.740;2022-10-26T12:31:59;20.50;99.90
4964;DHT22;2497;47.410;9.740;2022-10-26T12:34:57;20.70;99.90
4964;DHT22;2497;47.410;9.740;2022-10-26T12:37:33;20.80;99.90
4964;DHT22;2497;47.410;9.740;2022-10-26T12:40:39;21.10;99.90
4964;DHT22;2497;47.410;9.740;2022-10-26T12:43:33;21.00;99.90
4964;DHT22;2497;47.410;9.740;2022-10-26T12:52:51;20.30;99.90
4964;DHT22;2497;47.410;9.740;2022-10-26T12:55:45;19.90;99.90
4964;DHT22;2497;47.410;9.740;2022-10-26T12:58:50;19.70;99.90
4964;DHT22;2497;47.410;9.740;2022-10-26T13:01:36;19.50;99.90
4964;DHT22;2497;47.410;9.740;2022-10-26T13:04:36;19.50;99.90
4964;DHT22;2497;47.410;9.740;2022-10-26T13:07:20;19.30;99.90
4964;DHT22;2497;47.410;9.740;2022-10-26T13:09:58;19.10;99.90
4964;DHT22;2497;47.410;9.740;2022-10-26T13:12:28;19.00;99.90
4964;DHT22;2497;47.410;9.740;2022-10-26T13:15:03;18.90;99.90
4964;DHT22;2497;47.410;9.740;2022-10-26T13:17:33;18.90;99.90
4964;DHT22;2497;47.410;9.740;2022-10-26T13:20:02;19.00;99.90
4964;DHT22;2497;47.410;9.740;2022-10-26T13:22:31;19.00;99.90
4964;DHT22;2497;47.410;9.740;2022-10-26T13:25:02;19.10;99.90
4964;DHT22;2497;47.410;9.740;2022-10-26T13:27:41;19.20;99.90
4964;DHT22;2497;47.410;9.740;2022-10-26T13:30:19;19.30;99.90
4964;DHT22;2497;47.410;9.740;2022-10-26T13:32:50;19.30;99.90
4964;DHT22;2497;47.410;9.740;2022-10-26T13:35:20;19.30;99.90
4964;DHT22;2497;47.410;9.740;2022-10-26T13:37:50;19.30;99.90
4964;DHT22;2497;47.410;9.740;2022-10-26T13:40:21;19.30;99.90
4964;DHT22;2497;47.410;9.740;2022-10-26T13:42:52;19.20;99.90
4964;DHT22;2497;47.410;9.740;2022-10-26T13:45:22;19.10;99.90
4964;DHT22;2497;47.410;9.740;2022-10-26T13:47:55;19.00;99.90
4964;DHT22;2497;47.410;9.740;2022-10-26T13:50:27;19.00;99.90
4964;DHT22;2497;47.410;9.740;2022-10-26T13:53:03;19.10;99.90
4964;DHT22;2497;47.410;9.740;2022-10-26T13:55:38;19.10;99.90
4964;DHT22;2497;47.410;9.740;2022-10-26T13:58:18;19.10;99.90
4964;DHT22;2497;47.410;9.740;2022-10-26T14:01:12;18.90;99.90
4964;DHT22;2497;47.410;9.740;2022-10-26T14:03:41;18.90;99.90
4964;DHT22;2497;47.410;9.740;2022-10-26T14:06:14;18.90;99.90
4964;DHT22;2497;47.410;9.740;2022-10-26T14:08:44;18.80;99.90
4964;DHT22;2497;47.410;9.740;2022-10-26T14:11:18;18.80;99.90
4964;DHT22;2497;47.410;9.740;2022-10-26T14:13:55;18.80;99.90
4964;DHT22;2497;47.410;9.740;2022-10-26T14:16:26;18.80;99.90
4964;DHT22;2497;47.410;9.740;2022-10-26T14:18:56;18.80;99.90
4964;DHT22;2497;47.410;9.740;2022-10-26T14:21:24;18.90;99.90
4964;DHT22;2497;47.410;9.740;2022-10-26T14:23:53;18.90;99.90
4964;DHT22;2497;47.410;9.740;2022-10-26T14:26:25;19.00;99.90
4964;DHT22;2497;47.410;9.740;2022-10-26T14:28:55;18.90;99.90
4964;DHT22;2497;47.410;9.740;2022-10-26T14:31:26;19.00;99.90
4964;DHT22;2497;47.410;9.740;2022-10-26T14:33:55;19.00;99.90
4964;DHT22;2497;47.410;9.740;2022-10-26T14:36:25;19.00;99.90
4964;DHT22;2497;47.410;9.740;2022-10-26T14:38:57;19.00;99.90
4964;DHT22;2497;47.410;9.740;2022-10-26T14:41:28;18.90;99.90
4964;DHT22;2497;47.410;9.740;2022-10-26T14:43:57;18.90;99.90
4964;DHT22;2497;47.410;9.740;2022-10-26T14:46:27;18.90;99.90
4964;DHT22;2497;47.410;9.740;2022-10-26T14:48:59;19.10;99.90
4964;DHT22;2497;47.410;9.740;2022-10-26T14:51:29;19.10;99.90
4964;DHT22;2497;47.410;9.740;2022-10-26T14:53:57;19.10;99.90
4964;DHT22;2497;47.410;9.740;2022-10-26T14:56:38;19.00;99.90
4964;DHT22;2497;47.410;9.740;2022-10-26T14:59:10;19.00;99.90
4964;DHT22;2497;47.410;9.740;2022-10-26T15:01:53;19.00;99.90
4964;DHT22;2497;47.410;9.740;2022-10-26T15:04:33;19.00;99.90
4964;DHT22;2497;47.410;9.740;2022-10-26T15:07:19;18.90;99.90
4964;DHT22;2497;47.410;9.740;2022-10-26T15:09:47;18.80;99.90
4964;DHT22;2497;47.410;9.740;2022-10-26T15:12:21;18.80;99.90
4964;DHT22;2497;47.410;9.740;2022-10-26T15:14:50;18.80;99.90
4964;DHT22;2497;47.410;9.740;2022-10-26T15:17:21;18.80;99.90
4964;DHT22;2497;47.410;9.740;2022-10-26T15:19:52;18.70;99.90
4964;DHT22;2497;47.410;9.740;2022-10-26T15:22:24;18.70;99.90
4964;DHT22;2497;47.410;9.740;2022-10-26T15:24:54;18.60;99.90
4964;DHT22;2497;47.410;9.740;2022-10-26T15:27:24;18.50;99.90
4964;DHT22;2497;47.410;9.740;2022-10-26T15:30:10;18.40;99.90
4964;DHT22;2497;47.410;9.740;2022-10-26T15:32:38;18.50;99.90
4964;DHT22;2497;47.410;9.740;2022-10-26T15:35:25;18.50;99.90
4964;DHT22;2497;47.410;9.740;2022-10-26T15:37:54;18.40;99.90
4964;DHT22;2497;47.410;9.740;2022-10-26T15:40:23;18.40;99.90
4964;DHT22;2497;47.410;9.740;2022-10-26T15:42:53;18.30;99.90
4964;DHT22;2497;47.410;9.740;2022-10-26T15:45:23;18.00;99.90
4964;DHT22;2497;47.410;9.740;2022-10-26T15:47:52;17.90;99.90
4964;DHT22;2497;47.410;9.740;2022-10-26T15:50:21;17.70;99.90
4964;DHT22;2497;47.410;9.740;2022-10-26T15:52:51;17.50;99.90
4964;DHT22;2497;47.410;9.740;2022-10-26T15:55:21;17.40;99.90
4964;DHT22;2497;47.410;9.740;2022-10-26T15:57:49;17.30;99.90
4964;DHT22;2497;47.410;9.740;2022-10-26T16:00:19;17.30;99.90
4964;DHT22;2497;47.410;9.740;2022-10-26T16:02:46;17.20;99.90
4964;DHT22;2497;47.410;9.740;2022-10-26T16:05:15;17.10;99.90
4964;DHT22;2497;47.410;9.740;2022-10-26T16:07:46;17.00;99.90
4964;DHT22;2497;47.410;9.740;2022-10-26T16:10:17;16.90;99.90
4964;DHT22;2497;47.410;9.740;2022-10-26T16:12:47;16.80;99.90
4964;DHT22;2497;47.410;9.740;2022-10-26T16:15:18;16.70;99.90
4964;DHT22;2497;47.410;9.740;2022-10-26T16:17:48;16.60;99.90
4964;DHT22;2497;47.410;9.740;2022-10-26T16:20:18;16.60;99.90
4964;DHT22;2497;47.410;9.740;2022-10-26T16:22:47;16.50;99.90
4964;DHT22;2497;47.410;9.740;2022-10-26T16:25:18;16.50;99.90
4964;DHT22;2497;47.410;9.740;2022-10-26T16:27:46;16.40;99.90
4964;DHT22;2497;47.410;9.740;2022-10-26T16:30:15;16.40;99.90
4964;DHT22;2497;47.410;9.740;2022-10-26T16:32:45;16.30;99.90
4964;DHT22;2497;47.410;9.740;2022-10-26T16:35:14;16.20;99.90
4964;DHT22;2497;47.410;9.740;2022-10-26T16:37:42;16.20;99.90
4964;DHT22;2497;47.410;9.740;2022-10-26T16:40:10;16.10;99.90
4964;DHT22;2497;47.410;9.740;2022-10-26T16:42:38;16.00;99.90
4964;DHT22;2497;47.410;9.740;2022-10-26T16:45:09;16.00;99.90
4964;DHT22;2497;47.410;9.740;2022-10-26T16:47:37;16.00;99.90
4964;DHT22;2497;47.410;9.740;2022-10-26T16:50:07;15.90;99.90
4964;DHT22;2497;47.410;9.740;2022-10-26T16:52:36;15.90;99.90
4964;DHT22;2497;47.410;9.740;2022-10-26T16:55:05;15.80;99.90
4964;DHT22;2497;47.410;9.740;2022-10-26T16:57:35;15.80;99.90
4964;DHT22;2497;47.410;9.740;2022-10-26T17:00:04;15.80;99.90